createdAt,value
2019-05-13T00:02:14.992Z,7.90
2019-05-13T00:04:44.470Z,7.90
2019-05-13T00:07:14.239Z,7.90
2019-05-13T00:09:44.278Z,7.90
2019-05-13T00:12:14.065Z,8.00
2019-05-13T00:14:43.762Z,8.00
2019-05-13T00:17:14.633Z,7.90
2019-05-13T00:19:44.398Z,7.90
2019-05-13T00:22:14.158Z,7.90
2019-05-13T00:24:44.325Z,8.00
2019-05-13T00:27:14.213Z,8.00
2019-05-13T00:29:44.423Z,8.00
2019-05-13T00:32:14.257Z,7.90
2019-05-13T00:34:44.563Z,7.90
2019-05-13T00:37:14.901Z,7.80
2019-05-13T00:39:44.389Z,7.80
2019-05-13T00:42:14.319Z,7.90
2019-05-13T00:44:44.475Z,7.90
2019-05-13T00:47:14.179Z,7.90
2019-05-13T00:49:43.818Z,7.90
2019-05-13T00:52:14.309Z,7.90
2019-05-13T00:54:44.243Z,7.80
2019-05-13T00:57:14.255Z,7.80
2019-05-13T00:59:44.396Z,7.80
2019-05-13T01:02:14.058Z,7.80
2019-05-13T01:04:44.156Z,7.90
2019-05-13T01:07:25.083Z,7.80
2019-05-13T01:09:45.358Z,7.90
2019-05-13T01:12:14.774Z,7.80
2019-05-13T01:14:44.514Z,7.80
2019-05-13T01:17:14.286Z,7.90
2019-05-13T01:19:43.964Z,7.90
2019-05-13T01:22:13.623Z,7.90
2019-05-13T01:24:44.208Z,7.90
2019-05-13T01:27:14.093Z,7.80
2019-05-13T01:29:44.340Z,7.80
2019-05-13T01:32:14.461Z,7.70
2019-05-13T01:34:44.403Z,7.80
2019-05-13T01:37:13.838Z,7.80
2019-05-13T01:39:43.806Z,7.70
2019-05-13T01:42:13.845Z,7.80
2019-05-13T01:44:43.840Z,7.80
2019-05-13T01:47:13.496Z,7.70
2019-05-13T01:49:44.009Z,7.70
2019-05-13T01:52:14.069Z,7.70
2019-05-13T01:54:44.300Z,7.70
2019-05-13T01:57:14.386Z,7.70
2019-05-13T01:59:44.177Z,7.70
2019-05-13T02:02:13.886Z,7.70
2019-05-13T02:04:43.899Z,7.60
2019-05-13T02:07:14.417Z,7.60
2019-05-13T02:09:44.481Z,7.60
2019-05-13T02:12:14.335Z,7.50
2019-05-13T02:14:44.475Z,7.50
2019-05-13T02:17:14.660Z,7.60
2019-05-13T02:19:44.342Z,7.50
2019-05-13T02:22:14.665Z,7.50
2019-05-13T02:24:44.771Z,7.50
2019-05-13T02:27:14.628Z,7.50
2019-05-13T02:29:44.059Z,7.40
2019-05-13T02:32:14.099Z,7.40
2019-05-13T02:34:44.067Z,7.40
2019-05-13T02:37:13.536Z,7.40
2019-05-13T02:39:43.587Z,7.40
2019-05-13T02:42:13.486Z,7.40
2019-05-13T02:44:43.829Z,7.40
2019-05-13T02:47:13.503Z,7.50
2019-05-13T02:49:43.383Z,7.40
2019-05-13T02:52:13.446Z,7.30
2019-05-13T02:54:43.038Z,7.40
2019-05-13T02:57:12.638Z,7.30
2019-05-13T02:59:42.471Z,7.30
2019-05-13T03:02:12.650Z,7.40
2019-05-13T03:04:43.454Z,7.40
2019-05-13T03:07:13.229Z,7.30
2019-05-13T03:09:42.945Z,7.40
2019-05-13T03:12:13.276Z,7.40
2019-05-13T03:14:48.000Z,7.40
2019-05-13T03:17:23.058Z,7.40
2019-05-13T03:19:53.198Z,7.40
2019-05-13T03:22:22.924Z,7.40
2019-05-13T03:24:52.627Z,7.50
2019-05-13T03:27:25.007Z,7.40
2019-05-13T03:29:53.532Z,7.40
2019-05-13T03:32:26.799Z,7.30
2019-05-13T03:34:56.524Z,7.30
2019-05-13T03:37:27.225Z,7.30
2019-05-13T03:39:57.397Z,7.30
2019-05-13T03:42:28.150Z,7.30
2019-05-13T03:44:58.527Z,7.30
2019-05-13T03:47:28.712Z,7.20
2019-05-13T03:50:03.583Z,7.20
2019-05-13T03:52:33.582Z,7.20
2019-05-13T03:55:03.299Z,7.10
2019-05-13T03:57:34.002Z,7.20
2019-05-13T04:00:03.891Z,7.10
2019-05-13T04:02:33.945Z,7.10
2019-05-13T04:05:04.426Z,7.10
2019-05-13T04:07:34.036Z,7.10
2019-05-13T04:10:03.841Z,7.10
2019-05-13T04:12:33.691Z,7.00
2019-05-13T04:15:04.076Z,7.10
2019-05-13T04:17:33.955Z,7.10
2019-05-13T04:20:03.908Z,7.20
2019-05-13T04:22:33.467Z,7.10
2019-05-13T04:25:03.359Z,7.00
2019-05-13T04:27:32.970Z,7.20
2019-05-13T04:30:03.681Z,7.10
2019-05-13T04:32:34.436Z,7.10
2019-05-13T04:35:04.542Z,7.20
2019-05-13T04:37:34.243Z,7.30
2019-05-13T04:40:04.231Z,7.30
2019-05-13T04:42:33.928Z,7.40
2019-05-13T04:45:03.982Z,7.30
2019-05-13T04:47:33.568Z,7.50
2019-05-13T04:50:03.573Z,7.60
2019-05-13T04:52:33.479Z,7.60
2019-05-13T04:55:03.727Z,7.50
2019-05-13T04:57:33.750Z,7.50
2019-05-13T05:00:04.097Z,7.50
2019-05-13T05:03:03.355Z,7.60
2019-05-13T05:06:03.772Z,7.60
2019-05-13T05:09:03.232Z,7.50
2019-05-13T05:11:42.614Z,7.60
2019-05-13T05:14:32.644Z,7.80
2019-05-13T05:17:52.299Z,7.70
2019-05-13T05:20:29.423Z,7.70
2019-05-13T05:23:31.934Z,7.70
2019-05-13T05:26:42.969Z,7.70
2019-05-13T05:29:26.992Z,7.80
2019-05-13T05:32:42.796Z,7.80
2019-05-13T05:35:32.416Z,7.90
2019-05-13T05:38:36.890Z,8.00
2019-05-13T05:41:07.513Z,7.80
2019-05-13T05:43:45.220Z,7.90
2019-05-13T05:46:14.032Z,7.90
2019-05-13T05:48:49.682Z,7.70
2019-05-13T05:51:21.973Z,7.80
2019-05-13T05:53:52.676Z,7.90
2019-05-13T05:56:24.324Z,8.10
2019-05-13T05:58:55.050Z,8.10
2019-05-13T06:01:25.331Z,8.00
2019-05-13T06:03:57.483Z,7.90
2019-05-13T06:06:27.289Z,7.90
2019-05-13T06:08:56.748Z,8.00
2019-05-13T06:11:26.183Z,8.00
2019-05-13T06:13:56.190Z,8.00
2019-05-13T06:16:25.668Z,8.00
2019-05-13T06:18:55.280Z,8.10
2019-05-13T06:21:24.755Z,8.00
2019-05-13T06:23:54.239Z,7.90
2019-05-13T06:26:23.946Z,8.00
2019-05-13T06:28:53.487Z,8.10
2019-05-13T06:31:22.930Z,8.10
2019-05-13T06:33:52.585Z,8.20
2019-05-13T06:36:22.268Z,8.20
2019-05-13T06:38:52.080Z,8.10
2019-05-13T06:41:22.081Z,8.10
2019-05-13T06:43:52.368Z,8.20
2019-05-13T06:46:22.146Z,8.10
2019-05-13T06:48:52.145Z,8.20
2019-05-13T06:51:22.278Z,8.20
2019-05-13T06:53:52.046Z,8.20
2019-05-13T06:56:21.884Z,8.20
2019-05-13T06:58:52.122Z,8.20
2019-05-13T07:01:22.042Z,8.20
2019-05-13T07:03:51.913Z,8.30
2019-05-13T07:06:21.851Z,8.30
2019-05-13T07:08:52.143Z,8.40
2019-05-13T07:11:24.794Z,8.50
2019-05-13T07:13:52.943Z,8.60
2019-05-13T07:16:22.459Z,8.50
2019-05-13T07:18:52.481Z,8.50
2019-05-13T07:21:22.390Z,8.60
2019-05-13T07:23:54.714Z,8.70
2019-05-13T07:26:22.959Z,8.60
2019-05-13T07:28:52.964Z,8.70
2019-05-13T07:31:22.689Z,8.70
2019-05-13T07:33:52.418Z,8.90
2019-05-13T07:36:22.551Z,9.00
2019-05-13T07:38:52.910Z,9.00
2019-05-13T07:41:35.598Z,8.90
2019-05-13T07:43:53.500Z,8.90
2019-05-13T07:46:23.054Z,8.80
2019-05-13T07:48:52.582Z,8.80
2019-05-13T07:51:22.355Z,8.80
2019-05-13T07:53:51.984Z,9.00
2019-05-13T07:56:22.015Z,8.70
2019-05-13T07:58:52.346Z,8.60
2019-05-13T08:01:22.259Z,8.70
2019-05-13T08:03:51.802Z,8.70
2019-05-13T08:06:21.997Z,8.80
2019-05-13T08:08:52.408Z,8.70
2019-05-13T08:11:23.256Z,8.70
2019-05-13T08:13:53.527Z,8.80
2019-05-13T08:16:23.089Z,8.80
2019-05-13T08:18:52.552Z,8.80
2019-05-13T08:21:22.191Z,8.90
2019-05-13T08:23:52.474Z,8.80
2019-05-13T08:26:22.228Z,8.80
2019-05-13T08:29:00.749Z,8.80
2019-05-13T08:31:22.986Z,8.60
2019-05-13T08:33:52.434Z,8.70
2019-05-13T08:36:23.453Z,8.70
2019-05-13T08:38:54.174Z,8.60
2019-05-13T08:41:23.722Z,8.70
2019-05-13T08:43:53.180Z,8.80
2019-05-13T08:46:22.713Z,8.80
2019-05-13T08:48:52.191Z,9.00
2019-05-13T08:51:22.198Z,9.10
2019-05-13T08:53:51.893Z,9.10
2019-05-13T08:56:21.908Z,9.20
2019-05-13T08:58:52.243Z,9.20
2019-05-13T09:01:22.746Z,9.10
2019-05-13T09:03:52.660Z,9.10
2019-05-13T09:06:22.429Z,9.30
2019-05-13T09:08:53.966Z,9.50
2019-05-13T09:11:23.347Z,9.50
2019-05-13T09:13:52.858Z,9.40
2019-05-13T09:16:22.553Z,9.30
2019-05-13T09:18:52.215Z,9.40
2019-05-13T09:21:22.426Z,9.50
2019-05-13T09:23:52.340Z,9.40
2019-05-13T09:26:22.579Z,9.60
2019-05-13T09:28:52.301Z,9.70
2019-05-13T09:31:22.231Z,9.90
2019-05-13T09:33:52.179Z,10.20
2019-05-13T09:36:21.934Z,10.40
2019-05-13T09:38:52.637Z,10.40
2019-05-13T09:41:22.203Z,10.30
2019-05-13T09:43:51.795Z,10.20
2019-05-13T09:46:22.561Z,10.00
2019-05-13T09:48:52.219Z,10.00
2019-05-13T09:51:21.832Z,10.00
2019-05-13T09:53:52.008Z,10.20
2019-05-13T09:56:22.403Z,10.40
2019-05-13T09:58:51.945Z,10.40
2019-05-13T10:01:22.639Z,10.50
2019-05-13T10:03:57.163Z,10.50
2019-05-13T10:06:23.275Z,10.30
2019-05-13T10:08:52.871Z,10.40
2019-05-13T10:11:22.357Z,10.20
2019-05-13T10:13:51.875Z,10.40
2019-05-13T10:16:22.193Z,10.60
2019-05-13T10:18:52.498Z,10.80
2019-05-13T10:21:22.579Z,10.90
2019-05-13T10:23:52.559Z,10.90
2019-05-13T10:26:22.870Z,11.00
2019-05-13T10:28:52.705Z,10.90
2019-05-13T10:31:22.337Z,10.80
2019-05-13T10:33:52.110Z,10.60
2019-05-13T10:36:22.263Z,10.70
2019-05-13T10:38:52.662Z,10.80
2019-05-13T10:41:22.581Z,10.90
2019-05-13T10:43:52.362Z,10.80
2019-05-13T10:46:22.303Z,10.80
2019-05-13T10:48:52.741Z,10.60
2019-05-13T10:51:22.553Z,10.60
2019-05-13T10:53:53.007Z,10.50
2019-05-13T10:56:23.284Z,10.60
2019-05-13T10:58:53.420Z,10.70
2019-05-13T11:01:23.405Z,10.90
2019-05-13T11:03:52.870Z,10.80
2019-05-13T11:06:22.475Z,10.80
2019-05-13T11:08:53.092Z,10.70
2019-05-13T11:11:23.192Z,10.70
2019-05-13T11:13:59.190Z,10.70
2019-05-13T11:16:25.120Z,10.70
2019-05-13T11:18:54.546Z,10.80
2019-05-13T11:21:23.980Z,10.90
2019-05-13T11:23:53.420Z,11.10
2019-05-13T11:26:23.251Z,11.20
2019-05-13T11:28:52.684Z,11.20
2019-05-13T11:31:22.621Z,11.20
2019-05-13T11:33:52.388Z,11.30
2019-05-13T11:36:23.294Z,11.30
2019-05-13T11:38:53.396Z,11.30
2019-05-13T11:41:23.144Z,11.20
2019-05-13T11:44:09.221Z,11.10
2019-05-13T11:46:23.661Z,10.90
2019-05-13T11:48:53.107Z,10.80
2019-05-13T11:51:24.069Z,11.00
2019-05-13T11:53:53.673Z,11.10
2019-05-13T11:56:23.489Z,11.00
2019-05-13T11:58:53.613Z,11.00
2019-05-13T12:01:23.192Z,11.00
2019-05-13T12:03:53.280Z,11.00
2019-05-13T12:06:23.980Z,10.90
2019-05-13T12:08:55.168Z,10.80
2019-05-13T12:11:24.643Z,10.80
2019-05-13T12:13:54.109Z,10.80
2019-05-13T12:16:23.552Z,11.00
2019-05-13T12:18:53.172Z,11.20
2019-05-13T12:21:22.539Z,11.30
2019-05-13T12:23:52.961Z,11.00
2019-05-13T12:26:23.761Z,10.80
2019-05-13T12:28:53.957Z,10.90
2019-05-13T12:31:23.609Z,11.00
2019-05-13T12:33:53.099Z,11.10
2019-05-13T12:36:23.486Z,11.00
2019-05-13T12:38:54.525Z,11.10
2019-05-13T12:41:24.067Z,11.00
2019-05-13T12:43:54.160Z,11.10
2019-05-13T12:46:24.720Z,11.30
2019-05-13T12:48:54.438Z,11.20
2019-05-13T12:51:23.921Z,11.30
2019-05-13T12:53:53.337Z,11.30
2019-05-13T12:56:23.619Z,11.40
2019-05-13T12:58:53.357Z,11.30
2019-05-13T13:01:23.844Z,11.40
2019-05-13T13:03:53.812Z,11.40
2019-05-13T13:06:32.442Z,11.40
2019-05-13T13:08:54.902Z,11.50
2019-05-13T13:11:24.521Z,11.40
2019-05-13T13:13:59.635Z,11.40
2019-05-13T13:16:33.767Z,11.50
2019-05-13T13:18:56.297Z,11.50
2019-05-13T13:21:33.225Z,11.50
2019-05-13T13:23:57.031Z,11.50
2019-05-13T13:26:26.551Z,11.40
2019-05-13T13:28:56.875Z,11.30
2019-05-13T13:31:26.450Z,11.20
2019-05-13T13:33:56.035Z,11.10
2019-05-13T13:36:25.502Z,11.00
2019-05-13T13:38:56.113Z,11.00
2019-05-13T13:41:26.209Z,10.90
2019-05-13T13:43:55.620Z,10.90
2019-05-13T13:46:36.264Z,10.90
2019-05-13T13:48:56.466Z,10.90
2019-05-13T13:51:26.792Z,11.00
2019-05-13T13:53:56.916Z,10.90
2019-05-13T13:56:26.325Z,10.90
2019-05-13T13:58:55.861Z,10.80
2019-05-13T14:09:25.374Z,10.80
2019-05-13T14:11:54.796Z,10.70
2019-05-13T14:14:24.314Z,10.80
2019-05-13T14:16:53.874Z,10.70
2019-05-13T14:19:23.381Z,10.50
2019-05-13T14:21:52.851Z,10.40
2019-05-13T14:24:22.310Z,10.20
2019-05-13T14:26:52.560Z,10.10
2019-05-13T14:29:37.425Z,10.20
2019-05-13T14:31:54.174Z,10.20
2019-05-13T14:34:23.612Z,10.10
2019-05-13T14:36:53.098Z,10.00
2019-05-13T14:39:22.503Z,10.00
2019-05-13T14:41:51.986Z,10.10
2019-05-13T14:44:22.150Z,10.10
2019-05-13T14:46:52.468Z,10.10
2019-05-13T14:49:22.563Z,10.20
2019-05-13T14:51:56.073Z,10.20
2019-05-13T14:54:23.269Z,10.10
2019-05-13T14:56:52.810Z,10.00
2019-05-13T14:59:22.410Z,10.00
2019-05-13T15:01:52.080Z,9.90
2019-05-13T15:04:22.427Z,9.70
2019-05-13T15:06:51.989Z,9.90
2019-05-13T15:09:22.329Z,9.70
2019-05-13T15:11:52.924Z,9.60
2019-05-13T15:14:22.708Z,9.50
2019-05-13T15:17:02.185Z,9.50
2019-05-13T15:19:23.261Z,9.40
2019-05-13T15:21:52.789Z,9.30
2019-05-13T15:24:22.281Z,9.40
2019-05-13T15:26:51.855Z,9.30
2019-05-13T15:29:22.390Z,9.10
2019-05-13T15:31:52.129Z,9.20
2019-05-13T15:34:21.597Z,9.10
2019-05-13T15:36:51.577Z,9.10
2019-05-13T15:39:21.309Z,9.20
2019-05-13T15:41:52.343Z,9.20
2019-05-13T15:44:22.069Z,9.20
2019-05-13T15:46:52.321Z,9.20
2019-05-13T15:49:22.140Z,9.20
2019-05-13T15:51:52.014Z,9.30
2019-05-13T15:54:22.236Z,9.10
2019-05-13T15:56:51.635Z,9.10
2019-05-13T15:59:21.627Z,9.10
2019-05-13T16:01:52.607Z,9.20
2019-05-13T16:04:22.279Z,9.20
2019-05-13T16:06:52.203Z,9.10
2019-05-13T16:09:22.056Z,9.10
2019-05-13T16:11:52.142Z,9.00
2019-05-13T16:14:22.039Z,8.90
2019-05-13T16:16:52.561Z,9.00
2019-05-13T16:19:22.126Z,8.80
2019-05-13T16:21:51.910Z,8.80
2019-05-13T16:24:21.572Z,8.80
2019-05-13T16:26:52.142Z,8.90
2019-05-13T16:29:22.421Z,8.80
2019-05-13T16:31:52.170Z,8.80
2019-05-13T16:34:22.401Z,8.70
2019-05-13T16:36:53.008Z,8.70
2019-05-13T16:39:22.796Z,8.60
2019-05-13T16:41:52.311Z,8.70
2019-05-13T16:44:22.450Z,8.60
2019-05-13T16:46:52.094Z,8.50
2019-05-13T16:49:21.664Z,8.50
2019-05-13T16:51:51.774Z,8.40
2019-05-13T16:54:21.971Z,8.30
2019-05-13T16:56:51.972Z,8.40
2019-05-13T16:59:21.504Z,8.30
2019-05-13T17:01:51.301Z,8.20
2019-05-13T17:04:21.467Z,8.20
2019-05-13T17:06:53.155Z,8.20
2019-05-13T17:09:22.748Z,8.20
2019-05-13T17:11:52.228Z,8.10
2019-05-13T17:14:21.674Z,8.10
2019-05-13T17:16:51.880Z,8.00
2019-05-13T17:19:21.581Z,8.10
2019-05-13T17:21:52.039Z,8.10
2019-05-13T17:24:22.536Z,8.10
2019-05-13T17:26:52.374Z,8.00
2019-05-13T17:29:21.822Z,8.00
2019-05-13T17:31:51.576Z,8.10
2019-05-13T17:34:21.230Z,8.00
2019-05-13T17:36:51.886Z,7.90
2019-05-13T17:39:21.547Z,8.00
2019-05-13T17:41:52.182Z,8.10
2019-05-13T17:44:22.016Z,8.00
2019-05-13T17:46:52.236Z,7.90
2019-05-13T17:49:22.192Z,7.80
2019-05-13T17:51:51.847Z,8.00
2019-05-13T17:54:22.176Z,8.10
2019-05-13T17:56:51.758Z,8.00
2019-05-13T17:59:21.779Z,7.80
2019-05-13T18:01:51.745Z,7.70
2019-05-13T18:04:22.638Z,7.60
2019-05-13T18:06:52.463Z,7.70
2019-05-13T18:09:22.431Z,7.70
2019-05-13T18:11:52.902Z,7.70
2019-05-13T18:14:22.448Z,7.60
2019-05-13T18:16:51.980Z,7.80
2019-05-13T18:19:22.147Z,7.70
2019-05-13T18:21:51.805Z,7.70
2019-05-13T18:24:21.372Z,7.60
2019-05-13T18:26:52.109Z,7.60
2019-05-13T18:29:22.695Z,7.60
2019-05-13T18:31:53.105Z,7.60
2019-05-13T18:34:22.558Z,7.70
2019-05-13T18:36:53.373Z,7.70
2019-05-13T18:39:23.437Z,7.60
2019-05-13T18:41:53.161Z,7.50
2019-05-13T18:44:22.698Z,7.40
2019-05-13T18:46:52.425Z,7.40
2019-05-13T18:49:22.027Z,7.40
2019-05-13T18:51:52.085Z,7.30
2019-05-13T18:54:21.876Z,7.30
2019-05-13T18:56:52.162Z,7.30
2019-05-13T18:59:21.805Z,7.30
2019-05-13T19:01:52.955Z,7.30
2019-05-13T19:04:22.667Z,7.30
2019-05-13T19:06:52.373Z,7.30
2019-05-13T19:09:21.880Z,7.30
2019-05-13T19:12:02.514Z,7.30
2019-05-13T19:14:41.022Z,7.30
2019-05-13T19:17:12.504Z,7.30
2019-05-13T19:19:48.713Z,7.30
2019-05-13T19:22:44.595Z,7.20
2019-05-13T19:25:31.266Z,7.20
2019-05-13T19:28:02.408Z,7.20
2019-05-13T19:30:38.452Z,7.30
2019-05-13T19:33:14.070Z,7.20
2019-05-13T19:35:44.334Z,7.10
2019-05-13T19:38:21.058Z,7.00
2019-05-13T19:40:54.786Z,7.00
2019-05-13T19:43:41.589Z,7.00
2019-05-13T19:46:31.680Z,7.10
2019-05-13T19:52:15.046Z,7.00
2019-05-13T19:54:44.483Z,6.90
2019-05-13T19:57:13.935Z,7.00
2019-05-13T19:59:43.377Z,6.90
2019-05-13T20:02:12.854Z,6.90
2019-05-13T20:04:42.275Z,6.90
2019-05-13T20:07:12.078Z,6.90
2019-05-13T20:09:42.549Z,6.80
2019-05-13T20:12:15.525Z,6.90
2019-05-13T20:14:43.346Z,6.90
2019-05-13T20:17:12.927Z,6.90
2019-05-13T20:19:50.157Z,6.90
2019-05-13T20:22:13.477Z,6.90
2019-05-13T20:24:43.047Z,6.80
2019-05-13T20:27:12.466Z,6.80
2019-05-13T20:29:41.919Z,6.90
2019-05-13T20:32:11.775Z,6.80
2019-05-13T20:34:41.268Z,6.90
2019-05-13T20:37:12.412Z,6.80
2019-05-13T20:39:44.836Z,6.80
2019-05-13T20:42:14.272Z,6.80
2019-05-13T20:44:43.724Z,6.90
2019-05-13T20:47:13.142Z,6.80
2019-05-13T20:49:43.032Z,6.80
2019-05-13T20:52:15.208Z,6.90
2019-05-13T20:54:43.674Z,6.90
2019-05-13T20:57:13.094Z,6.90
2019-05-13T20:59:42.499Z,6.80
2019-05-13T21:02:12.567Z,6.90
2019-05-13T21:04:42.380Z,6.90
2019-05-13T21:07:11.945Z,6.90
2019-05-13T21:09:42.332Z,7.00
2019-05-13T21:12:12.172Z,7.00
2019-05-13T21:14:41.839Z,7.00
2019-05-13T21:17:12.199Z,7.00
2019-05-13T21:19:42.893Z,7.10
2019-05-13T21:22:12.708Z,7.20
2019-05-13T21:24:42.134Z,7.20
2019-05-13T21:27:12.047Z,7.30
2019-05-13T21:29:41.692Z,7.30
2019-05-13T21:32:11.828Z,7.20
2019-05-13T21:34:41.678Z,7.20
2019-05-13T21:37:11.540Z,7.20
2019-05-13T21:39:41.332Z,7.10
2019-05-13T21:42:11.539Z,7.10
2019-05-13T21:44:42.021Z,7.10
2019-05-13T21:47:11.668Z,7.00
2019-05-13T21:49:42.300Z,7.00
2019-05-13T21:52:12.283Z,7.00
2019-05-13T21:54:42.180Z,7.00
2019-05-13T21:57:11.915Z,7.00
2019-05-13T21:59:41.541Z,6.90
2019-05-13T22:02:12.007Z,6.80
2019-05-13T22:04:41.450Z,6.80
2019-05-13T22:07:12.180Z,6.80
2019-05-13T22:09:42.299Z,6.80
2019-05-13T22:12:11.786Z,6.80
2019-05-13T22:14:41.383Z,6.70
2019-05-13T22:17:12.328Z,6.70
2019-05-13T22:19:42.305Z,6.70
2019-05-13T22:22:12.220Z,6.70
2019-05-13T22:24:41.926Z,6.70
2019-05-13T22:27:13.280Z,6.70
2019-05-13T22:29:42.682Z,6.70
2019-05-13T22:32:12.342Z,6.70
2019-05-13T22:34:42.043Z,6.60
2019-05-13T22:37:11.826Z,6.50
2019-05-13T22:39:42.089Z,6.50
2019-05-13T22:42:12.595Z,6.60
2019-05-13T22:44:42.312Z,6.50
2019-05-13T22:47:13.456Z,6.50
2019-05-13T22:49:42.979Z,6.50
2019-05-13T22:52:12.440Z,6.50
2019-05-13T22:54:41.833Z,6.40
2019-05-13T22:57:11.965Z,6.40
2019-05-13T22:59:41.727Z,6.40
2019-05-13T23:02:11.281Z,6.50
2019-05-13T23:04:41.877Z,6.50
2019-05-13T23:07:11.907Z,6.50
2019-05-13T23:09:41.812Z,6.40
2019-05-13T23:12:12.322Z,6.50
2019-05-13T23:14:42.262Z,6.50
2019-05-13T23:17:12.480Z,6.50
2019-05-13T23:19:42.471Z,6.50
2019-05-13T23:22:12.176Z,6.40
2019-05-13T23:24:41.896Z,6.40
2019-05-13T23:27:11.305Z,6.40
2019-05-13T23:29:41.366Z,6.30
2019-05-13T23:32:12.040Z,6.40
2019-05-13T23:34:42.274Z,6.40
2019-05-13T23:37:12.047Z,6.30
2019-05-13T23:39:41.900Z,6.40
2019-05-13T23:42:12.222Z,6.30
2019-05-13T23:44:41.934Z,6.30
2019-05-13T23:47:11.671Z,6.30
2019-05-13T23:49:42.099Z,6.30
2019-05-13T23:52:11.979Z,6.40
2019-05-13T23:54:42.367Z,6.30
2019-05-13T23:57:12.183Z,6.40
2019-05-13T23:59:42.125Z,6.40
